createdAt,value
2018-06-18T00:00:23.581Z,19.45
2018-06-18T00:02:52.122Z,19.42
2018-06-18T00:05:20.625Z,19.14
2018-06-18T00:07:50.196Z,18.99
2018-06-18T00:10:18.648Z,19.15
2018-06-18T00:12:47.170Z,19.25
2018-06-18T00:15:15.683Z,19.30
2018-06-18T00:17:44.202Z,19.56
2018-06-18T00:20:12.687Z,19.46
2018-06-18T00:22:41.183Z,19.04
2018-06-18T00:25:09.666Z,19.19
2018-06-18T00:27:38.196Z,19.36
2018-06-18T00:30:06.656Z,19.41
2018-06-18T00:32:35.155Z,19.24
2018-06-18T00:35:03.665Z,19.31
2018-06-18T00:37:32.164Z,19.12
2018-06-18T00:40:00.625Z,19.26
2018-06-18T00:42:29.146Z,19.12
2018-06-18T00:44:57.621Z,19.36
2018-06-18T00:47:26.111Z,19.14
2018-06-18T00:49:54.567Z,19.10
2018-06-18T00:52:23.065Z,19.18
2018-06-18T00:54:51.524Z,19.26
2018-06-18T00:57:20.040Z,19.38
2018-06-18T00:59:48.506Z,19.44
2018-06-18T01:02:17.023Z,19.45
2018-06-18T01:04:45.492Z,19.25
2018-06-18T01:07:14.036Z,17.93
2018-06-18T01:09:42.505Z,19.09
2018-06-18T01:12:11.017Z,18.92
2018-06-18T01:14:40.000Z,18.95
2018-06-18T01:17:08.536Z,18.73
2018-06-18T01:19:37.001Z,18.83
2018-06-18T01:22:05.852Z,18.91
2018-06-18T01:24:41.584Z,19.07
2018-06-18T01:27:10.115Z,16.77
2018-06-18T01:29:38.694Z,19.17
2018-06-18T01:32:07.243Z,19.09
2018-06-18T01:34:35.768Z,19.07
2018-06-18T01:37:04.295Z,19.18
2018-06-18T01:39:32.758Z,19.15
2018-06-18T01:42:01.247Z,19.06
2018-06-18T01:44:29.722Z,18.79
2018-06-18T01:46:58.211Z,18.99
2018-06-18T01:49:26.648Z,19.08
2018-06-18T01:51:55.168Z,19.08
2018-06-18T01:54:23.620Z,19.12
2018-06-18T01:56:52.075Z,19.05
2018-06-18T01:59:20.629Z,19.06
2018-06-18T02:01:49.084Z,19.14
2018-06-18T02:04:17.577Z,18.87
2018-06-18T02:06:46.147Z,18.94
2018-06-18T02:09:14.631Z,18.98
2018-06-18T02:11:43.147Z,18.94
2018-06-18T02:14:12.064Z,18.87
2018-06-18T02:16:40.691Z,18.96
2018-06-18T02:19:09.396Z,18.98
2018-06-18T02:21:38.232Z,18.93
2018-06-18T02:24:06.748Z,18.90
2018-06-18T02:26:35.351Z,18.88
2018-06-18T02:29:09.088Z,18.78
2018-06-18T02:31:42.972Z,18.34
2018-06-18T02:34:16.639Z,18.64
2018-06-18T02:36:50.401Z,18.41
2018-06-18T02:39:19.233Z,18.70
2018-06-18T02:41:47.775Z,18.57
2018-06-18T02:44:16.248Z,18.61
2018-06-18T02:46:44.744Z,18.68
2018-06-18T02:49:13.185Z,18.69
2018-06-18T02:51:41.762Z,18.73
2018-06-18T02:54:10.472Z,18.78
2018-06-18T02:56:48.410Z,18.56
2018-06-18T02:59:17.200Z,18.64
2018-06-18T03:01:45.803Z,18.64
2018-06-18T03:04:14.319Z,18.57
2018-06-18T03:06:42.929Z,18.68
2018-06-18T03:09:12.657Z,18.59
2018-06-18T03:11:41.265Z,18.70
2018-06-18T03:14:10.294Z,18.84
2018-06-18T03:16:39.836Z,18.67
2018-06-18T03:19:13.740Z,18.56
2018-06-18T03:21:47.567Z,18.60
2018-06-18T03:24:21.319Z,18.35
2018-06-18T03:26:55.162Z,18.47
2018-06-18T03:29:25.877Z,18.52
2018-06-18T03:31:56.101Z,18.52
2018-06-18T03:34:24.585Z,18.34
2018-06-18T03:36:53.402Z,18.36
2018-06-18T03:39:21.940Z,18.47
2018-06-18T03:41:51.705Z,18.43
2018-06-18T03:44:29.291Z,16.30
2018-06-18T03:46:59.863Z,18.28
2018-06-18T03:49:28.425Z,18.33
2018-06-18T03:51:56.918Z,18.39
2018-06-18T03:54:25.387Z,18.47
2018-06-18T03:56:53.886Z,18.66
2018-06-18T03:59:22.335Z,18.45
2018-06-18T04:03:00.989Z,18.60
2018-06-18T04:05:35.061Z,18.23
2018-06-18T04:08:09.262Z,18.00
2018-06-18T04:10:43.492Z,17.86
2018-06-18T04:13:11.999Z,17.87
2018-06-18T04:15:40.453Z,17.72
2018-06-18T04:18:08.949Z,17.77
2018-06-18T04:20:44.344Z,17.28
2018-06-18T04:23:12.876Z,17.17
2018-06-18T04:25:41.363Z,17.34
2018-06-18T04:28:09.916Z,17.17
2018-06-18T04:30:38.451Z,17.28
2018-06-18T04:33:07.445Z,17.47
2018-06-18T04:35:35.961Z,17.42
2018-06-18T04:38:04.529Z,17.73
2018-06-18T04:40:33.454Z,17.56
2018-06-18T04:43:07.139Z,17.67
2018-06-18T04:45:40.896Z,17.40
2018-06-18T04:48:14.658Z,17.66
2018-06-18T04:51:01.258Z,17.68
2018-06-18T04:53:30.184Z,17.81
2018-06-18T04:55:58.681Z,18.12
2018-06-18T04:58:27.201Z,18.30
2018-06-18T05:01:04.086Z,17.70
2018-06-18T05:03:32.616Z,17.85
2018-06-18T05:06:01.137Z,17.81
2018-06-18T05:10:39.687Z,17.94
2018-06-18T05:13:08.205Z,17.70
2018-06-18T05:15:38.935Z,17.73
2018-06-18T05:18:07.509Z,18.13
2018-06-18T05:20:36.406Z,18.30
2018-06-18T05:23:09.061Z,18.04
2018-06-18T05:25:37.567Z,17.61
2018-06-18T05:28:06.236Z,17.70
2018-06-18T05:30:34.746Z,18.03
2018-06-18T05:33:03.212Z,18.22
2018-06-18T05:35:31.710Z,18.55
2018-06-18T05:38:07.839Z,18.59
2018-06-18T05:40:36.455Z,18.60
2018-06-18T05:43:04.968Z,19.08
2018-06-18T05:45:33.471Z,19.12
2018-06-18T05:48:03.453Z,19.57
2018-06-18T05:50:32.055Z,19.50
2018-06-18T05:53:00.527Z,19.47
2018-06-18T05:55:29.066Z,19.75
2018-06-18T05:57:57.556Z,20.21
2018-06-18T06:00:26.123Z,19.51
2018-06-18T06:02:54.567Z,19.19
2018-06-18T06:05:23.080Z,19.57
2018-06-18T06:07:51.881Z,19.46
2018-06-18T06:10:20.388Z,19.95
2018-06-18T06:12:48.895Z,20.18
2018-06-18T06:15:17.399Z,20.30
2018-06-18T06:17:45.885Z,20.28
2018-06-18T06:20:14.432Z,20.35
2018-06-18T06:22:42.940Z,21.00
2018-06-18T06:25:11.569Z,20.85
2018-06-18T06:27:40.081Z,20.62
2018-06-18T06:30:08.609Z,20.73
2018-06-18T06:32:37.112Z,20.18
2018-06-18T06:35:24.019Z,20.09
2018-06-18T06:37:52.603Z,20.47
2018-06-18T06:40:21.144Z,20.30
2018-06-18T06:42:49.617Z,20.38
2018-06-18T06:45:19.179Z,20.69
2018-06-18T06:47:47.661Z,20.48
2018-06-18T06:50:16.207Z,20.15
2018-06-18T06:52:45.168Z,20.47
2018-06-18T06:55:13.673Z,20.61
2018-06-18T06:57:42.140Z,20.32
2018-06-18T07:00:10.668Z,20.38
2018-06-18T07:02:39.257Z,20.29
2018-06-18T07:05:08.041Z,20.27
2018-06-18T07:07:36.543Z,20.31
2018-06-18T07:10:05.211Z,20.57
2018-06-18T07:12:33.672Z,20.56
2018-06-18T07:15:02.153Z,20.30
2018-06-18T07:17:30.721Z,20.06
2018-06-18T07:19:59.202Z,20.25
2018-06-18T07:22:27.821Z,20.57
2018-06-18T07:24:56.329Z,20.89
2018-06-18T07:27:24.906Z,21.01
2018-06-18T07:29:53.511Z,21.16
2018-06-18T07:32:22.156Z,21.28
2018-06-18T07:34:50.751Z,21.08
2018-06-18T07:37:19.432Z,20.94
2018-06-18T07:39:48.361Z,21.01
2018-06-18T07:42:16.988Z,21.15
2018-06-18T07:44:45.734Z,21.40
2018-06-18T07:47:14.489Z,21.46
2018-06-18T07:49:43.056Z,21.58
2018-06-18T07:52:11.626Z,22.01
2018-06-18T07:54:40.212Z,21.92
2018-06-18T07:57:08.879Z,21.87
2018-06-18T07:59:37.649Z,21.92
2018-06-18T08:02:06.261Z,21.78
2018-06-18T08:04:34.807Z,21.82
2018-06-18T08:07:03.401Z,21.53
2018-06-18T08:09:31.963Z,21.27
2018-06-18T08:12:01.856Z,21.22
2018-06-18T08:14:30.354Z,21.31
2018-06-18T08:16:58.927Z,21.19
2018-06-18T08:19:27.508Z,21.04
2018-06-18T08:21:56.064Z,18.20
2018-06-18T08:24:24.645Z,21.12
2018-06-18T08:26:53.426Z,21.51
2018-06-18T08:29:22.008Z,21.65
2018-06-18T08:31:50.670Z,21.70
2018-06-18T08:34:19.323Z,21.96
2018-06-18T08:36:47.906Z,21.90
2018-06-18T08:39:16.496Z,21.73
2018-06-18T08:41:45.207Z,21.75
2018-06-18T08:44:13.825Z,21.68
2018-06-18T08:46:42.483Z,21.68
2018-06-18T08:49:11.152Z,21.81
2018-06-18T08:51:45.938Z,21.78
2018-06-18T08:54:19.812Z,21.73
2018-06-18T08:56:54.782Z,21.93
2018-06-18T08:59:28.613Z,21.84
2018-06-18T09:01:57.269Z,21.84
2018-06-18T09:04:31.212Z,21.80
2018-06-18T09:07:03.229Z,21.77
2018-06-18T09:09:31.924Z,21.78
2018-06-18T09:12:00.552Z,22.04
2018-06-18T09:14:29.149Z,21.84
2018-06-18T09:16:57.836Z,22.38
2018-06-18T09:19:26.442Z,22.41
2018-06-18T09:21:55.146Z,22.68
2018-06-18T09:24:32.012Z,22.98
2018-06-18T09:27:05.763Z,23.24
2018-06-18T09:29:34.746Z,23.38
2018-06-18T09:32:03.427Z,23.37
2018-06-18T09:34:32.086Z,23.90
2018-06-18T09:37:00.736Z,24.29
2018-06-18T09:39:29.283Z,23.87
2018-06-18T09:41:57.856Z,24.29
2018-06-18T09:44:26.497Z,24.32
2018-06-18T09:46:54.958Z,24.27
2018-06-18T09:49:28.720Z,24.41
2018-06-18T09:52:02.476Z,24.45
2018-06-18T09:54:36.335Z,24.40
2018-06-18T09:57:15.487Z,24.28
2018-06-18T09:59:49.369Z,24.22
2018-06-18T10:02:17.976Z,24.02
2018-06-18T10:04:46.475Z,23.61
2018-06-18T10:07:15.053Z,23.68
2018-06-18T10:09:43.610Z,23.51
2018-06-18T10:12:12.102Z,24.03
2018-06-18T10:14:40.653Z,24.36
2018-06-18T10:17:09.228Z,24.40
2018-06-18T10:19:37.844Z,24.42
2018-06-18T10:22:06.362Z,24.91
2018-06-18T10:24:34.982Z,25.09
2018-06-18T10:27:03.457Z,25.07
2018-06-18T10:29:31.972Z,24.96
2018-06-18T10:32:00.456Z,24.89
2018-06-18T10:34:34.055Z,25.42
2018-06-18T10:37:07.860Z,25.77
2018-06-18T10:39:41.592Z,25.72
2018-06-18T10:42:15.348Z,25.71
2018-06-18T10:44:43.974Z,26.23
2018-06-18T10:47:12.424Z,26.38
2018-06-18T10:49:41.057Z,26.19
2018-06-18T10:52:09.592Z,25.92
2018-06-18T10:54:38.055Z,25.26
2018-06-18T10:57:06.584Z,25.24
2018-06-18T10:59:35.063Z,25.17
2018-06-18T11:02:03.660Z,25.00
2018-06-18T11:04:32.478Z,24.89
2018-06-18T11:07:02.046Z,25.56
2018-06-18T11:09:30.655Z,25.92
2018-06-18T11:11:59.191Z,25.93
2018-06-18T11:14:27.670Z,25.49
2018-06-18T11:17:01.721Z,25.37
2018-06-18T11:19:35.145Z,25.50
2018-06-18T11:22:03.912Z,25.25
2018-06-18T11:25:36.295Z,25.23
2018-06-18T11:28:04.928Z,25.27
2018-06-18T11:30:34.161Z,25.94
2018-06-18T11:33:02.648Z,25.89
2018-06-18T11:35:34.246Z,25.66
2018-06-18T11:38:02.763Z,26.07
2018-06-18T11:40:31.394Z,25.93
2018-06-18T11:42:59.915Z,25.59
2018-06-18T11:45:28.440Z,25.44
2018-06-18T11:48:09.222Z,25.38
2018-06-18T11:50:38.175Z,24.78
2018-06-18T11:53:06.855Z,24.35
2018-06-18T11:55:36.090Z,24.16
2018-06-18T11:58:05.192Z,23.96
2018-06-18T12:00:39.263Z,24.22
2018-06-18T12:03:13.110Z,25.30
2018-06-18T12:05:47.055Z,25.63
2018-06-18T12:08:21.160Z,26.06
2018-06-18T12:10:50.875Z,26.49
2018-06-18T12:13:19.510Z,26.19
2018-06-18T12:15:48.194Z,26.14
2018-06-18T12:18:16.844Z,26.23
2018-06-18T12:20:45.756Z,25.80
2018-06-18T12:23:14.367Z,26.09
2018-06-18T12:25:44.273Z,26.47
2018-06-18T12:28:13.030Z,26.68
2018-06-18T12:30:41.683Z,26.50
2018-06-18T12:33:14.264Z,26.58
2018-06-18T12:35:42.855Z,26.03
2018-06-18T12:38:11.492Z,25.91
2018-06-18T12:40:40.086Z,25.93
2018-06-18T12:43:09.215Z,25.73
2018-06-18T12:45:43.131Z,25.84
2018-06-18T12:48:19.114Z,25.59
2018-06-18T12:50:53.099Z,25.65
2018-06-18T12:53:27.062Z,25.74
2018-06-18T12:56:00.937Z,26.01
2018-06-18T12:58:29.594Z,25.84
2018-06-18T13:00:58.207Z,26.04
2018-06-18T13:03:26.945Z,25.93
2018-06-18T13:05:55.661Z,26.12
2018-06-18T13:08:24.387Z,26.28
2018-06-18T13:10:53.000Z,26.10
2018-06-18T13:13:21.624Z,25.99
2018-06-18T13:15:50.176Z,25.87
2018-06-18T13:18:18.852Z,25.85
2018-06-18T13:20:47.900Z,25.80
2018-06-18T13:23:16.553Z,26.07
2018-06-18T13:25:46.057Z,26.00
2018-06-18T13:28:16.182Z,25.72
2018-06-18T13:30:45.314Z,25.59
2018-06-18T13:33:13.959Z,25.41
2018-06-18T13:35:42.635Z,25.36
2018-06-18T13:38:16.587Z,25.41
2018-06-18T13:40:50.459Z,25.40
2018-06-18T13:43:24.410Z,25.23
2018-06-18T13:45:58.311Z,24.96
2018-06-18T13:48:32.345Z,25.10
2018-06-18T13:51:01.003Z,25.34
2018-06-18T13:53:29.610Z,25.07
2018-06-18T13:55:58.200Z,24.95
2018-06-18T13:58:26.910Z,25.02
2018-06-18T14:00:55.499Z,24.79
2018-06-18T14:03:24.160Z,25.03
2018-06-18T14:05:52.727Z,24.93
2018-06-18T14:08:21.426Z,24.90
2018-06-18T14:10:50.022Z,25.05
2018-06-18T14:13:18.653Z,25.19
2018-06-18T14:15:47.263Z,25.63
2018-06-18T14:18:16.949Z,25.77
2018-06-18T14:20:45.559Z,25.43
2018-06-18T14:23:14.161Z,25.53
2018-06-18T14:25:42.854Z,25.29
2018-06-18T14:28:11.522Z,24.87
2018-06-18T14:30:45.485Z,24.74
2018-06-18T14:33:19.347Z,24.96
2018-06-18T14:35:53.308Z,24.76
2018-06-18T14:38:27.295Z,24.66
2018-06-18T14:40:56.103Z,24.45
2018-06-18T14:43:24.836Z,24.37
2018-06-18T14:45:53.506Z,24.01
2018-06-18T14:48:26.486Z,23.87
2018-06-18T14:50:56.183Z,23.88
2018-06-18T14:53:24.770Z,23.73
2018-06-18T14:56:02.112Z,23.72
2018-06-18T14:58:30.747Z,24.08
2018-06-18T15:00:59.804Z,24.08
2018-06-18T15:03:28.462Z,24.18
2018-06-18T15:05:57.322Z,24.21
2018-06-18T15:08:27.048Z,24.32
2018-06-18T15:10:55.684Z,24.15
2018-06-18T15:13:24.321Z,24.26
2018-06-18T15:15:58.112Z,24.30
2018-06-18T15:18:26.728Z,24.33
2018-06-18T15:20:58.361Z,24.36
2018-06-18T15:23:27.178Z,24.32
2018-06-18T15:25:56.161Z,24.48
2018-06-18T15:28:24.758Z,24.72
2018-06-18T15:30:53.434Z,24.76
2018-06-18T15:33:22.512Z,24.85
2018-06-18T15:35:51.107Z,24.72
2018-06-18T15:38:19.919Z,24.43
2018-06-18T15:40:48.420Z,24.19
2018-06-18T15:43:17.749Z,24.31
2018-06-18T15:45:46.241Z,24.43
2018-06-18T15:48:14.756Z,24.39
2018-06-18T15:50:43.281Z,24.66
2018-06-18T15:53:11.769Z,24.47
2018-06-18T15:55:40.273Z,24.18
2018-06-18T15:58:08.764Z,24.17
2018-06-18T16:00:40.396Z,24.17
2018-06-18T16:03:08.903Z,24.45
2018-06-18T16:05:37.640Z,24.54
2018-06-18T16:08:06.204Z,24.72
2018-06-18T16:10:34.919Z,24.86
2018-06-18T16:13:03.376Z,24.71
2018-06-18T16:15:31.877Z,24.65
2018-06-18T16:18:00.389Z,24.69
2018-06-18T16:20:28.913Z,24.57
2018-06-18T16:23:03.879Z,17.42
2018-06-18T16:25:32.372Z,24.77
2018-06-18T16:28:01.835Z,24.58
2018-06-18T16:30:30.368Z,24.66
2018-06-18T16:32:58.828Z,24.96
2018-06-18T16:35:27.327Z,25.02
2018-06-18T16:37:55.793Z,24.93
2018-06-18T16:40:28.868Z,24.59
2018-06-18T16:42:58.589Z,24.78
2018-06-18T16:45:27.027Z,24.72
2018-06-18T16:47:55.508Z,25.03
2018-06-18T16:50:23.980Z,25.14
2018-06-18T16:52:52.526Z,25.31
2018-06-18T16:55:21.105Z,25.13
2018-06-18T16:57:49.620Z,24.80
2018-06-18T17:00:18.144Z,24.97
2018-06-18T17:02:46.759Z,25.07
2018-06-18T17:05:15.194Z,25.08
2018-06-18T17:07:43.703Z,24.92
2018-06-18T17:10:12.209Z,25.07
2018-06-18T17:12:41.705Z,25.02
2018-06-18T17:15:10.169Z,24.72
2018-06-18T17:17:38.733Z,24.21
2018-06-18T17:20:07.276Z,24.06
2018-06-18T17:22:35.897Z,24.58
2018-06-18T17:25:04.387Z,24.59
2018-06-18T17:27:32.960Z,24.64
2018-06-18T17:30:01.485Z,24.45
2018-06-18T17:32:30.179Z,24.13
2018-06-18T17:34:58.696Z,24.19
2018-06-18T17:37:27.245Z,24.36
2018-06-18T17:39:55.911Z,24.04
2018-06-18T17:42:24.413Z,24.08
2018-06-18T17:44:52.922Z,24.24
2018-06-18T17:47:29.839Z,24.49
2018-06-18T17:49:58.962Z,23.08
2018-06-18T17:52:27.439Z,23.92
2018-06-18T17:54:55.903Z,24.18
2018-06-18T17:57:24.414Z,24.33
2018-06-18T17:59:53.176Z,24.20
2018-06-18T18:02:21.676Z,23.77
2018-06-18T18:04:50.178Z,23.61
2018-06-18T18:07:18.700Z,23.68
2018-06-18T18:09:47.209Z,23.41
2018-06-18T18:12:15.720Z,23.69
2018-06-18T18:14:44.236Z,23.18
2018-06-18T18:17:12.860Z,23.33
2018-06-18T18:19:41.355Z,23.34
2018-06-18T18:22:10.888Z,23.35
2018-06-18T18:24:39.784Z,23.27
2018-06-18T18:27:08.343Z,22.96
2018-06-18T18:29:36.846Z,23.24
2018-06-18T18:32:05.384Z,22.98
2018-06-18T18:34:36.911Z,22.81
2018-06-18T18:37:09.885Z,16.39
2018-06-18T18:39:38.317Z,22.86
2018-06-18T18:42:10.952Z,22.92
2018-06-18T18:44:39.437Z,23.17
2018-06-18T18:47:07.959Z,23.45
2018-06-18T18:49:36.425Z,23.66
2018-06-18T18:52:04.984Z,23.49
2018-06-18T18:55:47.863Z,23.31
2018-06-18T18:58:27.530Z,22.92
2018-06-18T19:00:55.991Z,23.17
2018-06-18T19:03:28.312Z,22.88
2018-06-18T19:05:58.309Z,22.96
2018-06-18T19:08:29.155Z,22.64
2018-06-18T19:11:00.348Z,22.64
2018-06-18T19:13:31.277Z,22.65
2018-06-18T19:16:00.259Z,22.51
2018-06-18T19:18:34.519Z,22.71
2018-06-18T19:21:07.177Z,22.39
2018-06-18T19:23:35.805Z,22.40
2018-06-18T19:26:04.351Z,22.43
2018-06-18T19:28:33.165Z,22.41
2018-06-18T19:31:18.001Z,22.44
2018-06-18T19:34:08.558Z,22.66
2018-06-18T19:36:39.948Z,22.56
2018-06-18T19:39:11.841Z,22.20
2018-06-18T19:41:40.618Z,22.12
2018-06-18T19:44:09.410Z,22.14
2018-06-18T19:47:01.154Z,22.22
2018-06-18T19:49:29.908Z,22.35
2018-06-18T19:51:58.587Z,22.11
2018-06-18T19:54:30.437Z,22.31
2018-06-18T19:56:58.960Z,21.90
2018-06-18T19:59:27.634Z,21.91
2018-06-18T20:01:56.114Z,21.72
2018-06-18T20:04:24.618Z,22.07
2018-06-18T20:06:53.091Z,21.85
2018-06-18T20:09:22.048Z,14.18
2018-06-18T20:11:50.555Z,21.75
2018-06-18T20:14:19.123Z,21.72
2018-06-18T20:16:47.984Z,21.77
2018-06-18T20:19:16.560Z,21.79
2018-06-18T20:21:45.591Z,21.78
2018-06-18T20:24:14.139Z,21.70
2018-06-18T20:26:42.605Z,21.89
2018-06-18T20:29:11.157Z,21.95
2018-06-18T20:31:40.657Z,21.84
2018-06-18T20:34:09.306Z,21.72
2018-06-18T20:36:37.761Z,21.39
2018-06-18T20:39:09.179Z,21.71
2018-06-18T20:41:39.634Z,21.86
2018-06-18T20:44:20.972Z,21.88
2018-06-18T20:46:49.610Z,22.03
2018-06-18T20:49:18.867Z,22.06
2018-06-18T20:51:48.179Z,21.99
2018-06-18T20:54:16.895Z,22.08
2018-06-18T20:56:45.538Z,22.07
2018-06-18T20:59:14.715Z,22.26
2018-06-18T21:01:44.236Z,22.43
2018-06-18T21:04:12.721Z,22.37
2018-06-18T21:06:43.316Z,22.51
2018-06-18T21:09:12.417Z,22.50
2018-06-18T21:11:41.061Z,22.53
2018-06-18T21:14:10.796Z,22.43
2018-06-18T21:16:41.560Z,22.23
2018-06-18T21:19:10.081Z,22.41
2018-06-18T21:21:38.656Z,22.38
2018-06-18T21:24:07.237Z,22.20
2018-06-18T21:26:35.769Z,22.35
2018-06-18T21:29:04.456Z,22.14
2018-06-18T21:31:32.961Z,22.18
2018-06-18T21:34:01.448Z,22.10
2018-06-18T21:36:29.988Z,22.18
2018-06-18T21:38:58.471Z,22.18
2018-06-18T21:41:26.987Z,22.25
2018-06-18T21:43:56.492Z,22.25
2018-06-18T21:46:25.079Z,22.21
2018-06-18T21:48:53.552Z,22.19
2018-06-18T21:51:22.508Z,22.05
2018-06-18T21:53:50.973Z,22.13
2018-06-18T21:56:19.480Z,22.07
2018-06-18T21:58:47.941Z,21.98
2018-06-18T22:01:26.405Z,21.82
2018-06-18T22:03:54.901Z,21.16
2018-06-18T22:06:23.420Z,21.13
2018-06-18T22:08:51.952Z,21.52
2018-06-18T22:11:20.431Z,21.69
2018-06-18T22:13:48.951Z,21.71
2018-06-18T22:16:17.426Z,21.85
2018-06-18T22:18:45.955Z,21.72
2018-06-18T22:21:14.420Z,21.57
2018-06-18T22:23:42.935Z,21.68
2018-06-18T22:26:11.477Z,21.49
2018-06-18T22:28:41.492Z,21.62
2018-06-18T22:31:09.990Z,21.75
2018-06-18T22:33:38.523Z,21.74
2018-06-18T22:36:07.000Z,21.78
2018-06-18T22:38:35.524Z,21.28
2018-06-18T22:41:04.084Z,21.35
2018-06-18T22:43:33.107Z,21.46
2018-06-18T22:46:01.633Z,20.93
2018-06-18T22:48:30.752Z,21.20
2018-06-18T22:50:59.305Z,21.30
2018-06-18T22:53:27.821Z,21.49
2018-06-18T22:55:56.280Z,21.16
2018-06-18T22:58:24.787Z,20.94
2018-06-18T23:00:55.292Z,20.54
2018-06-18T23:03:23.873Z,20.52
2018-06-18T23:08:48.583Z,20.35
2018-06-18T23:11:17.319Z,20.27
2018-06-18T23:13:46.100Z,20.27
2018-06-18T23:16:14.831Z,20.18
2018-06-18T23:18:43.625Z,20.00
2018-06-18T23:21:12.336Z,20.04
2018-06-18T23:23:41.197Z,19.89
2018-06-18T23:26:09.939Z,19.63
2018-06-18T23:28:43.233Z,19.76
2018-06-18T23:31:11.961Z,19.82
2018-06-18T23:33:40.678Z,20.02
2018-06-18T23:36:09.428Z,19.92
2018-06-18T23:38:38.229Z,19.95
2018-06-18T23:41:07.179Z,20.05
2018-06-18T23:43:35.879Z,20.29
2018-06-18T23:46:04.932Z,20.63
2018-06-18T23:48:33.671Z,20.66
2018-06-18T23:51:02.412Z,20.37
2018-06-18T23:53:31.119Z,20.57
2018-06-18T23:55:59.968Z,20.68
2018-06-18T23:58:28.969Z,20.65
